Time;durP1;ratioP1;P1;durP2;ratioP2;P2;SDS_P1;SDS_P2;PMS_P1;PMS_P2;Temp;Humidity;BMP_temperature;BMP_pressure;BME280_temperature;BME280_humidity;BME280_pressure;Samples;Min_cycle;Max_cycle;Signal;HPM_P1;HPM_P2
2023/08/08 00:00:29;;;;;;;2.80;1.83;;;;;;;;;;5027398;28;20187;-74
2023/08/08 00:02:55;;;;;;;2.40;2.20;;;;;;;;;;4976035;28;20606;-74
2023/08/08 00:05:22;;;;;;;2.93;1.77;;;;;;;;;;5005418;28;20229;-75
2023/08/08 00:07:48;;;;;;;5.27;1.90;;;;;;;;;;5020347;28;20174;-77
2023/08/08 00:10:14;;;;;;;2.90;1.80;;;;;;;;;;5025337;28;20183;-77
2023/08/08 00:12:40;;;;;;;3.37;2.00;;;;;;;;;;5024844;28;20689;-76
2023/08/08 00:15:07;;;;;;;1.80;1.70;;;;;;;;;;5024932;28;20225;-76
2023/08/08 00:17:33;;;;;;;2.07;1.87;;;;;;;;;;5029912;28;20535;-75
2023/08/08 00:19:59;;;;;;;2.33;1.87;;;;;;;;;;5026886;28;20673;-75
2023/08/08 00:22:25;;;;;;;2.97;2.00;;;;;;;;;;5016539;28;20293;-75
2023/08/08 00:24:51;;;;;;;2.10;1.90;;;;;;;;;;5062926;22;20716;-76
2023/08/08 00:27:17;;;;;;;3.80;1.97;;;;;;;;;;5045352;28;20181;-75
2023/08/08 00:29:44;;;;;;;2.63;2.10;;;;;;;;;;5044087;28;20186;-76
2023/08/08 00:32:10;;;;;;;3.97;2.10;;;;;;;;;;5031078;28;20193;-76
2023/08/08 00:34:37;;;;;;;2.03;1.80;;;;;;;;;;5031629;28;20208;-74
2023/08/08 00:37:03;;;;;;;4.07;1.90;;;;;;;;;;5013426;28;20221;-75
2023/08/08 00:39:29;;;;;;;3.93;1.80;;;;;;;;;;5047769;28;20186;-74
2023/08/08 00:41:55;;;;;;;2.20;2.00;;;;;;;;;;5031220;28;20213;-75
2023/08/08 00:44:21;;;;;;;3.20;1.90;;;;;;;;;;5031879;28;20228;-75
2023/08/08 00:46:48;;;;;;;3.13;2.10;;;;;;;;;;5015783;28;20182;-74
2023/08/08 00:49:14;;;;;;;1.80;1.70;;;;;;;;;;5015649;28;20189;-75
2023/08/08 00:51:40;;;;;;;1.87;1.77;;;;;;;;;;5047625;28;20279;-76
2023/08/08 00:54:07;;;;;;;2.43;2.10;;;;;;;;;;5030477;28;20206;-76
2023/08/08 00:56:34;;;;;;;3.50;1.77;;;;;;;;;;5026661;28;20209;-76
2023/08/08 00:59:00;;;;;;;1.83;1.73;;;;;;;;;;5014222;28;20216;-75
2023/08/08 01:01:27;;;;;;;4.07;2.07;;;;;;;;;;5030950;28;20694;-76
2023/08/08 01:03:53;;;;;;;4.40;2.07;;;;;;;;;;5049589;28;20196;-76
2023/08/08 01:06:26;;;;;;;3.03;2.00;;;;;;;;;;5048170;28;20182;-76
2023/08/08 01:09:01;;;;;;;4.87;2.13;;;;;;;;;;5028767;28;20537;-76
2023/08/08 01:11:28;;;;;;;3.93;2.00;;;;;;;;;;5043551;28;20550;-75
2023/08/08 01:13:54;;;;;;;2.27;2.03;;;;;;;;;;5014067;28;20216;-76
2023/08/08 01:16:21;;;;;;;3.57;2.10;;;;;;;;;;5046548;28;20248;-76
2023/08/08 01:18:48;;;;;;;2.90;2.13;;;;;;;;;;5024144;28;20186;-76
2023/08/08 01:21:16;;;;;;;3.97;2.20;;;;;;;;;;5027943;28;20245;-76
2023/08/08 01:23:57;;;;;;;3.13;1.90;;;;;;;;;;5049922;28;20212;-75
2023/08/08 01:26:23;;;;;;;3.00;2.00;;;;;;;;;;5049813;28;20268;-75
2023/08/08 01:28:54;;;;;;;2.97;2.03;;;;;;;;;;5050874;28;20193;-75
2023/08/08 01:31:20;;;;;;;3.03;2.00;;;;;;;;;;5033605;28;20881;-75
2023/08/08 01:33:47;;;;;;;4.23;2.10;;;;;;;;;;5024005;28;20249;-76
2023/08/08 01:36:25;;;;;;;2.83;2.07;;;;;;;;;;5051561;28;20185;-76
2023/08/08 01:38:53;;;;;;;5.73;2.13;;;;;;;;;;5047456;28;20689;-75
2023/08/08 01:41:20;;;;;;;3.37;2.30;;;;;;;;;;5033242;28;20219;-75
2023/08/08 01:43:47;;;;;;;2.93;2.00;;;;;;;;;;5047739;28;20293;-76
2023/08/08 01:46:13;;;;;;;3.67;2.13;;;;;;;;;;5033469;28;20186;-75
2023/08/08 01:48:39;;;;;;;7.97;2.20;;;;;;;;;;5016899;28;20236;-75
2023/08/08 01:51:06;;;;;;;3.27;2.40;;;;;;;;;;5016279;28;20220;-75
2023/08/08 01:53:32;;;;;;;4.17;2.27;;;;;;;;;;5032453;28;20500;-76
2023/08/08 01:55:58;;;;;;;3.40;1.80;;;;;;;;;;5033419;28;20590;-74
2023/08/08 01:58:24;;;;;;;3.00;2.03;;;;;;;;;;5030464;28;20210;-76
2023/08/08 02:00:50;;;;;;;2.70;1.90;;;;;;;;;;5032948;28;20644;-75
2023/08/08 02:03:16;;;;;;;5.83;2.20;;;;;;;;;;5012877;28;20182;-75
2023/08/08 02:05:43;;;;;;;3.33;2.20;;;;;;;;;;5050022;28;20219;-75
2023/08/08 02:08:09;;;;;;;3.90;2.10;;;;;;;;;;5031515;28;20213;-75
2023/08/08 02:10:35;;;;;;;4.13;2.20;;;;;;;;;;5017311;28;20193;-76
2023/08/08 02:13:02;;;;;;;2.90;1.80;;;;;;;;;;5032915;28;20186;-74
2023/08/08 02:15:28;;;;;;;3.57;2.07;;;;;;;;;;5033665;28;20262;-74
2023/08/08 02:17:55;;;;;;;3.50;2.30;;;;;;;;;;5050740;28;20185;-74
2023/08/08 02:20:21;;;;;;;3.77;2.30;;;;;;;;;;5031424;28;20211;-75
2023/08/08 02:22:47;;;;;;;7.27;2.30;;;;;;;;;;5032300;28;20283;-75
2023/08/08 02:25:18;;;;;;;4.20;2.30;;;;;;;;;;5032985;28;20221;-76
2023/08/08 02:27:45;;;;;;;4.83;2.60;;;;;;;;;;5037624;28;20228;-74
2023/08/08 02:30:11;;;;;;;5.57;2.33;;;;;;;;;;5017410;28;20205;-75
2023/08/08 02:32:37;;;;;;;4.67;2.17;;;;;;;;;;5031759;28;20178;-75
2023/08/08 02:35:04;;;;;;;3.47;2.43;;;;;;;;;;5048441;28;20579;-75
2023/08/08 02:37:30;;;;;;;4.27;2.53;;;;;;;;;;5031669;28;20737;-76
2023/08/08 02:39:56;;;;;;;4.83;2.50;;;;;;;;;;5050215;28;20189;-76
2023/08/08 02:42:22;;;;;;;5.20;2.70;;;;;;;;;;5020340;28;20218;-76
2023/08/08 02:44:48;;;;;;;3.33;2.40;;;;;;;;;;5032111;28;20632;-76
2023/08/08 02:47:15;;;;;;;6.63;2.50;;;;;;;;;;5031999;28;20170;-76
2023/08/08 02:49:41;;;;;;;3.60;2.57;;;;;;;;;;5031721;28;20229;-74
2023/08/08 02:52:07;;;;;;;3.50;2.50;;;;;;;;;;5010897;28;20175;-75
2023/08/08 02:54:35;;;;;;;5.37;2.10;;;;;;;;;;5028929;28;20281;-76
2023/08/08 02:57:01;;;;;;;6.00;2.43;;;;;;;;;;5014967;28;20236;-72
2023/08/08 02:59:28;;;;;;;4.00;2.30;;;;;;;;;;5032871;28;20260;-76
2023/08/08 03:01:55;;;;;;;4.63;2.50;;;;;;;;;;5015887;28;20206;-76
2023/08/08 03:04:21;;;;;;;3.07;2.07;;;;;;;;;;5031532;28;20461;-72
2023/08/08 03:06:47;;;;;;;3.73;2.13;;;;;;;;;;5047395;28;20174;-73
2023/08/08 03:09:14;;;;;;;2.90;2.20;;;;;;;;;;5032429;28;20621;-74
2023/08/08 03:11:41;;;;;;;4.07;2.27;;;;;;;;;;5032520;28;20197;-75
2023/08/08 03:14:09;;;;;;;2.67;2.10;;;;;;;;;;5030011;28;20710;-76
2023/08/08 03:16:36;;;;;;;3.00;2.10;;;;;;;;;;5033705;28;20679;-75
2023/08/08 03:19:03;;;;;;;4.73;2.60;;;;;;;;;;5031014;28;20552;-76
2023/08/08 03:21:30;;;;;;;3.03;2.13;;;;;;;;;;5031308;28;20226;-74
2023/08/08 03:23:57;;;;;;;3.80;2.40;;;;;;;;;;5031881;28;20217;-75
2023/08/08 03:26:23;;;;;;;4.33;2.30;;;;;;;;;;5010456;28;20197;-75
2023/08/08 03:28:53;;;;;;;3.70;2.30;;;;;;;;;;5049786;28;20217;-76
2023/08/08 03:31:22;;;;;;;4.23;2.30;;;;;;;;;;5012768;28;20217;-76
2023/08/08 03:33:48;;;;;;;4.03;2.10;;;;;;;;;;5048717;28;20205;-73
2023/08/08 03:36:15;;;;;;;5.10;2.20;;;;;;;;;;5028475;28;20192;-76
2023/08/08 03:38:44;;;;;;;2.97;1.90;;;;;;;;;;5049106;28;20229;-75
2023/08/08 03:41:10;;;;;;;3.83;2.23;;;;;;;;;;5024228;28;20240;-74
2023/08/08 03:43:37;;;;;;;2.93;2.30;;;;;;;;;;5035439;28;20217;-74
2023/08/08 03:46:03;;;;;;;2.50;2.13;;;;;;;;;;5033552;28;20631;-75
2023/08/08 03:48:29;;;;;;;5.53;2.10;;;;;;;;;;5014491;28;20201;-75
2023/08/08 03:50:56;;;;;;;5.33;2.17;;;;;;;;;;5028378;28;20193;-74
2023/08/08 03:53:22;;;;;;;3.67;2.20;;;;;;;;;;5048481;28;20233;-74
2023/08/08 03:55:49;;;;;;;2.80;2.30;;;;;;;;;;5038697;28;20188;-74
2023/08/08 03:58:16;;;;;;;3.67;2.07;;;;;;;;;;5030505;28;20526;-75
2023/08/08 04:00:46;;;;;;;4.00;2.30;;;;;;;;;;5010648;28;20211;-75
2023/08/08 04:03:15;;;;;;;4.10;2.10;;;;;;;;;;5031195;28;20182;-75
2023/08/08 04:05:48;;;;;;;4.10;2.23;;;;;;;;;;5048696;28;20205;-72
2023/08/08 04:08:15;;;;;;;3.13;2.23;;;;;;;;;;5027064;28;20592;-75
2023/08/08 04:10:41;;;;;;;2.40;2.20;;;;;;;;;;5046205;28;20224;-76
2023/08/08 04:13:08;;;;;;;2.87;2.00;;;;;;;;;;5028233;28;20212;-76
2023/08/08 04:15:35;;;;;;;3.30;2.60;;;;;;;;;;5030856;28;20178;-75
2023/08/08 04:18:02;;;;;;;4.70;2.40;;;;;;;;;;5030456;28;20572;-72
2023/08/08 04:20:28;;;;;;;2.57;1.97;;;;;;;;;;5031269;28;20190;-76
2023/08/08 04:22:54;;;;;;;4.13;2.20;;;;;;;;;;5041784;28;20260;-75
2023/08/08 04:25:21;;;;;;;2.60;2.40;;;;;;;;;;5048631;28;20213;-75
2023/08/08 04:27:47;;;;;;;4.03;2.00;;;;;;;;;;5030312;28;20546;-75
2023/08/08 04:30:13;;;;;;;4.00;2.20;;;;;;;;;;5047325;28;20181;-75
2023/08/08 04:32:39;;;;;;;3.67;2.30;;;;;;;;;;5031066;28;20188;-75
2023/08/08 04:35:06;;;;;;;4.20;2.57;;;;;;;;;;5048713;28;20284;-76
2023/08/08 04:37:32;;;;;;;3.70;2.60;;;;;;;;;;5013318;28;20616;-76
2023/08/08 04:39:58;;;;;;;2.93;2.23;;;;;;;;;;5047911;28;20190;-75
2023/08/08 04:42:24;;;;;;;3.20;2.50;;;;;;;;;;5046819;28;20210;-75
2023/08/08 04:44:50;;;;;;;3.73;2.17;;;;;;;;;;5048551;28;20193;-76
2023/08/08 04:47:16;;;;;;;3.47;2.60;;;;;;;;;;5035721;28;20648;-76
2023/08/08 04:49:42;;;;;;;4.13;2.37;;;;;;;;;;5047883;28;20216;-75
2023/08/08 04:52:08;;;;;;;4.37;2.40;;;;;;;;;;5028480;28;20189;-76
2023/08/08 04:54:35;;;;;;;2.63;2.43;;;;;;;;;;5030144;28;20202;-76
2023/08/08 04:57:01;;;;;;;3.50;2.50;;;;;;;;;;5052091;28;20253;-76
2023/08/08 04:59:27;;;;;;;4.13;2.33;;;;;;;;;;5029658;28;20182;-72
2023/08/08 05:01:53;;;;;;;3.37;2.50;;;;;;;;;;5052454;28;20217;-75
2023/08/08 05:04:19;;;;;;;5.47;2.60;;;;;;;;;;5051932;28;20300;-75
2023/08/08 05:06:46;;;;;;;2.87;2.30;;;;;;;;;;5034501;28;20264;-75
2023/08/08 05:09:12;;;;;;;4.87;2.80;;;;;;;;;;5028525;28;20178;-76
2023/08/08 05:11:38;;;;;;;6.00;2.70;;;;;;;;;;5018260;28;20186;-76
2023/08/08 05:14:04;;;;;;;3.93;2.40;;;;;;;;;;5032068;28;20304;-76
2023/08/08 05:16:30;;;;;;;4.77;2.73;;;;;;;;;;5051946;28;20181;-76
2023/08/08 05:18:56;;;;;;;3.93;2.40;;;;;;;;;;5051290;28;20197;-75
2023/08/08 05:21:23;;;;;;;4.70;2.67;;;;;;;;;;5052440;28;20206;-76
2023/08/08 05:23:49;;;;;;;4.30;2.63;;;;;;;;;;5034181;28;20646;-76
2023/08/08 05:26:16;;;;;;;3.43;2.53;;;;;;;;;;5049899;28;20654;-75
2023/08/08 05:28:42;;;;;;;4.67;2.67;;;;;;;;;;5053196;28;20174;-75
2023/08/08 05:31:09;;;;;;;2.87;2.17;;;;;;;;;;5038347;28;20200;-75
2023/08/08 05:33:35;;;;;;;3.80;2.27;;;;;;;;;;5030208;28;20206;-76
2023/08/08 05:36:01;;;;;;;4.10;2.43;;;;;;;;;;5045923;28;20590;-75
2023/08/08 05:38:27;;;;;;;5.27;2.73;;;;;;;;;;5047591;28;20562;-76
2023/08/08 05:40:54;;;;;;;5.23;2.60;;;;;;;;;;5045844;28;20680;-75
2023/08/08 05:43:21;;;;;;;6.27;2.63;;;;;;;;;;5030007;28;20633;-75
2023/08/08 05:45:47;;;;;;;5.63;2.60;;;;;;;;;;5049197;28;20209;-76
2023/08/08 05:48:13;;;;;;;4.20;2.47;;;;;;;;;;5046805;28;20228;-76
2023/08/08 05:50:40;;;;;;;5.43;2.97;;;;;;;;;;5049912;28;20197;-76
2023/08/08 05:53:07;;;;;;;5.13;2.60;;;;;;;;;;5050066;28;20244;-75
2023/08/08 05:55:33;;;;;;;3.20;2.27;;;;;;;;;;4994142;28;20185;-74
2023/08/08 05:57:59;;;;;;;5.43;2.73;;;;;;;;;;5048146;28;20200;-75
2023/08/08 06:00:25;;;;;;;4.70;2.53;;;;;;;;;;5049476;28;20181;-75
2023/08/08 06:02:51;;;;;;;3.93;2.10;;;;;;;;;;5048770;28;20209;-76
2023/08/08 06:05:18;;;;;;;3.33;2.23;;;;;;;;;;5048787;28;20233;-76
2023/08/08 06:07:44;;;;;;;5.23;2.60;;;;;;;;;;5030347;28;20214;-75
2023/08/08 06:10:11;;;;;;;4.20;2.43;;;;;;;;;;5030592;28;20237;-74
2023/08/08 06:12:37;;;;;;;3.17;2.57;;;;;;;;;;5025734;28;20268;-76
2023/08/08 06:15:03;;;;;;;4.40;2.50;;;;;;;;;;5048376;28;20205;-73
2023/08/08 06:17:30;;;;;;;3.30;2.47;;;;;;;;;;5046913;28;20262;-76
2023/08/08 06:19:57;;;;;;;3.07;2.20;;;;;;;;;;5030618;28;20205;-76
2023/08/08 06:22:23;;;;;;;3.70;2.30;;;;;;;;;;5045967;28;20294;-75
2023/08/08 06:24:49;;;;;;;4.33;2.40;;;;;;;;;;5050756;22;20226;-74
2023/08/08 06:27:15;;;;;;;4.20;2.40;;;;;;;;;;5027338;28;20277;-73
2023/08/08 06:29:41;;;;;;;4.60;2.30;;;;;;;;;;4975154;28;20562;-72
2023/08/08 06:32:08;;;;;;;2.77;2.20;;;;;;;;;;5028597;28;20273;-70
2023/08/08 06:34:34;;;;;;;4.17;2.20;;;;;;;;;;5002659;28;20242;-73
2023/08/08 06:37:00;;;;;;;3.90;2.30;;;;;;;;;;5000417;28;20211;-72
2023/08/08 06:39:27;;;;;;;6.83;2.40;;;;;;;;;;5016828;28;20186;-75
2023/08/08 06:41:53;;;;;;;3.93;2.30;;;;;;;;;;5014968;28;20212;-81
2023/08/08 06:44:32;;;;;;;5.00;2.30;;;;;;;;;;4964141;28;20256;-79
2023/08/08 06:46:59;;;;;;;4.47;2.53;;;;;;;;;;4978415;28;20187;-80
2023/08/08 06:49:25;;;;;;;3.43;2.03;;;;;;;;;;4969256;28;20672;-79
2023/08/08 06:51:51;;;;;;;6.03;2.97;;;;;;;;;;4994606;28;20187;-80
2023/08/08 06:54:17;;;;;;;2.70;2.20;;;;;;;;;;4983279;28;20217;-82
2023/08/08 06:56:44;;;;;;;3.70;2.43;;;;;;;;;;4987075;28;20637;-79
2023/08/08 06:59:10;;;;;;;3.17;2.37;;;;;;;;;;4984847;28;20285;-80
2023/08/08 07:01:36;;;;;;;5.83;2.87;;;;;;;;;;4976981;28;20215;-80
2023/08/08 07:04:02;;;;;;;4.40;2.40;;;;;;;;;;4994160;28;20208;-79
2023/08/08 07:06:29;;;;;;;5.07;2.33;;;;;;;;;;4979888;28;20187;-81
2023/08/08 07:08:55;;;;;;;3.23;2.40;;;;;;;;;;5016533;28;20801;-81
2023/08/08 07:11:22;;;;;;;4.10;2.80;;;;;;;;;;4987563;28;20195;-83
2023/08/08 07:13:48;;;;;;;5.00;2.50;;;;;;;;;;4988596;28;20222;-81
2023/08/08 07:16:14;;;;;;;3.70;2.30;;;;;;;;;;4976133;28;20187;-81
2023/08/08 07:18:40;;;;;;;4.77;2.50;;;;;;;;;;5005852;28;20187;-81
2023/08/08 07:21:06;;;;;;;2.23;2.00;;;;;;;;;;5001464;28;20214;-81
2023/08/08 07:23:32;;;;;;;3.70;2.50;;;;;;;;;;4983201;28;20634;-80
2023/08/08 07:25:58;;;;;;;4.43;2.50;;;;;;;;;;4964677;28;20183;-81
2023/08/08 07:28:25;;;;;;;4.87;2.43;;;;;;;;;;4989500;28;20195;-81
2023/08/08 07:30:51;;;;;;;5.07;2.30;;;;;;;;;;4968219;28;20524;-79
2023/08/08 07:33:17;;;;;;;3.27;2.27;;;;;;;;;;5017676;28;20190;-79
2023/08/08 07:35:43;;;;;;;3.77;2.47;;;;;;;;;;4990473;28;20210;-78
2023/08/08 07:38:09;;;;;;;3.67;2.40;;;;;;;;;;4999073;28;20556;-78
2023/08/08 07:40:36;;;;;;;3.80;2.13;;;;;;;;;;5024421;28;20187;-81
2023/08/08 07:43:02;;;;;;;5.53;2.20;;;;;;;;;;5011940;28;20213;-82
2023/08/08 07:45:28;;;;;;;4.57;1.97;;;;;;;;;;5020512;28;20203;-83
2023/08/08 07:47:54;;;;;;;5.27;2.00;;;;;;;;;;4988955;28;20279;-84
2023/08/08 07:50:21;;;;;;;3.40;1.70;;;;;;;;;;4986579;28;20189;-79
2023/08/08 07:52:47;;;;;;;3.53;1.80;;;;;;;;;;5005487;28;20241;-82
2023/08/08 07:55:13;;;;;;;2.87;2.00;;;;;;;;;;5000520;28;20626;-78
2023/08/08 07:57:39;;;;;;;2.57;1.80;;;;;;;;;;5015573;28;20241;-77
2023/08/08 08:00:12;;;;;;;3.70;1.70;;;;;;;;;;4997763;28;20245;-77
2023/08/08 08:02:38;;;;;;;2.70;1.80;;;;;;;;;;5020235;28;20281;-78
2023/08/08 08:05:07;;;;;;;4.53;2.07;;;;;;;;;;5020237;28;20250;-84
2023/08/08 08:07:34;;;;;;;4.67;1.70;;;;;;;;;;5001100;28;20201;-79
2023/08/08 08:10:01;;;;;;;2.57;1.70;;;;;;;;;;5010241;28;20191;-76
2023/08/08 08:12:27;;;;;;;3.07;1.50;;;;;;;;;;4986073;28;20656;-75
2023/08/08 08:14:53;;;;;;;1.80;1.70;;;;;;;;;;5019943;28;20206;-74
2023/08/08 08:17:19;;;;;;;3.50;1.60;;;;;;;;;;4999933;28;20278;-76
2023/08/08 08:19:46;;;;;;;2.17;1.60;;;;;;;;;;5009758;28;20259;-74
2023/08/08 08:22:12;;;;;;;1.97;1.40;;;;;;;;;;5001647;28;20206;-74
2023/08/08 08:24:38;;;;;;;3.37;1.70;;;;;;;;;;5017868;28;20220;-77
2023/08/08 08:27:04;;;;;;;2.50;1.27;;;;;;;;;;5011405;28;20210;-76
2023/08/08 08:29:31;;;;;;;5.13;1.50;;;;;;;;;;5016823;28;20216;-74
2023/08/08 08:31:57;;;;;;;2.33;1.50;;;;;;;;;;5008008;28;20195;-74
2023/08/08 08:34:23;;;;;;;4.13;1.80;;;;;;;;;;5017328;28;20209;-74
2023/08/08 08:36:49;;;;;;;1.53;1.20;;;;;;;;;;5014493;28;20179;-74
2023/08/08 08:39:16;;;;;;;2.70;1.70;;;;;;;;;;5015749;28;20406;-76
2023/08/08 08:41:42;;;;;;;2.30;1.40;;;;;;;;;;4980495;28;20717;-77
2023/08/08 08:44:08;;;;;;;2.37;1.50;;;;;;;;;;4995569;28;20249;-74
2023/08/08 08:46:39;;;;;;;1.60;1.47;;;;;;;;;;4988939;28;20532;-73
2023/08/08 08:49:08;;;;;;;2.20;1.30;;;;;;;;;;5016341;28;20610;-76
2023/08/08 08:51:35;;;;;;;1.90;1.40;;;;;;;;;;5012922;28;20657;-76
2023/08/08 08:54:01;;;;;;;2.93;1.50;;;;;;;;;;5008890;28;20647;-76
2023/08/08 08:56:28;;;;;;;3.30;1.57;;;;;;;;;;5003112;28;20180;-75
2023/08/08 08:58:54;;;;;;;3.27;1.60;;;;;;;;;;5004162;28;20179;-74
2023/08/08 09:01:22;;;;;;;4.30;1.60;;;;;;;;;;4994933;28;20896;-74
2023/08/08 09:03:48;;;;;;;2.30;1.60;;;;;;;;;;4995051;28;20623;-74
2023/08/08 09:06:16;;;;;;;1.97;1.40;;;;;;;;;;5009806;28;20183;-75
2023/08/08 09:08:42;;;;;;;1.87;1.30;;;;;;;;;;5014917;28;20175;-75
2023/08/08 09:11:09;;;;;;;3.07;1.40;;;;;;;;;;5010431;28;20566;-74
2023/08/08 09:13:38;;;;;;;2.17;1.60;;;;;;;;;;5011689;28;20267;-74
2023/08/08 09:16:05;;;;;;;2.03;1.50;;;;;;;;;;4987607;28;20245;-74
2023/08/08 09:18:33;;;;;;;1.60;1.40;;;;;;;;;;5014090;28;20190;-74
2023/08/08 09:20:59;;;;;;;3.87;1.50;;;;;;;;;;5007138;28;20218;-73
2023/08/08 09:23:25;;;;;;;2.20;1.70;;;;;;;;;;4990806;28;21438;-74
2023/08/08 09:25:51;;;;;;;3.30;1.57;;;;;;;;;;5008823;28;20708;-75
2023/08/08 09:28:18;;;;;;;2.17;1.50;;;;;;;;;;5021406;28;20178;-75
2023/08/08 09:30:44;;;;;;;3.27;1.30;;;;;;;;;;5015237;28;20175;-74
2023/08/08 09:33:12;;;;;;;6.07;1.50;;;;;;;;;;5015520;28;20641;-74
2023/08/08 09:35:39;;;;;;;3.00;1.27;;;;;;;;;;5017715;28;20658;-75
2023/08/08 09:38:05;;;;;;;1.73;1.30;;;;;;;;;;5008640;28;20572;-74
2023/08/08 09:40:31;;;;;;;3.53;1.87;;;;;;;;;;5010809;28;20188;-74
2023/08/08 09:42:58;;;;;;;1.77;1.30;;;;;;;;;;5000411;28;20215;-75
2023/08/08 09:45:24;;;;;;;3.97;1.37;;;;;;;;;;5020665;28;20198;-75
2023/08/08 09:47:54;;;;;;;3.03;1.57;;;;;;;;;;5023548;28;20179;-74
2023/08/08 09:50:21;;;;;;;3.17;1.47;;;;;;;;;;5021432;28;20179;-75
2023/08/08 09:52:47;;;;;;;2.13;1.50;;;;;;;;;;5021524;28;20217;-74
2023/08/08 09:55:15;;;;;;;2.27;1.60;;;;;;;;;;5017565;28;20235;-74
2023/08/08 09:57:42;;;;;;;2.53;1.50;;;;;;;;;;5023159;28;20182;-74
2023/08/08 10:00:11;;;;;;;5.93;1.77;;;;;;;;;;4999468;28;20640;-74
2023/08/08 10:02:38;;;;;;;2.70;1.47;;;;;;;;;;4999106;28;20270;-73
2023/08/08 10:05:05;;;;;;;1.93;1.40;;;;;;;;;;5015779;28;20238;-74
2023/08/08 10:07:31;;;;;;;3.23;1.80;;;;;;;;;;5017635;28;20171;-76
2023/08/08 10:09:58;;;;;;;2.27;1.40;;;;;;;;;;5018375;28;20669;-73
2023/08/08 10:12:26;;;;;;;3.27;1.70;;;;;;;;;;4977135;28;20188;-74
2023/08/08 10:14:52;;;;;;;1.97;1.33;;;;;;;;;;5019923;28;20679;-72
2023/08/08 10:17:19;;;;;;;2.93;1.60;;;;;;;;;;5018791;28;20654;-73
2023/08/08 10:19:55;;;;;;;2.87;1.60;;;;;;;;;;5015464;28;20190;-76
2023/08/08 10:22:25;;;;;;;4.00;1.60;;;;;;;;;;5014833;28;20246;-74
2023/08/08 10:24:53;;;;;;;2.87;1.50;;;;;;;;;;5013936;28;20293;-76
2023/08/08 10:27:31;;;;;;;2.33;1.73;;;;;;;;;;5001110;28;20566;-76
2023/08/08 10:30:07;;;;;;;3.30;1.40;;;;;;;;;;5012114;28;20183;-75
2023/08/08 10:32:59;;;;;;;2.20;1.60;;;;;;;;;;5015327;28;20263;-73
2023/08/08 10:35:35;;;;;;;3.40;1.60;;;;;;;;;;5015912;28;20767;-74
2023/08/08 10:38:01;;;;;;;1.93;1.63;;;;;;;;;;4998069;28;20190;-75
2023/08/08 10:40:33;;;;;;;2.57;1.77;;;;;;;;;;5015859;28;20824;-74
2023/08/08 10:42:59;;;;;;;3.40;1.70;;;;;;;;;;4997515;28;20207;-73
2023/08/08 10:45:30;;;;;;;2.00;1.63;;;;;;;;;;4996280;28;20819;-73
2023/08/08 10:47:56;;;;;;;2.17;1.60;;;;;;;;;;5018522;28;20190;-74
2023/08/08 10:50:24;;;;;;;2.83;1.70;;;;;;;;;;4986640;28;20260;-73
2023/08/08 10:52:53;;;;;;;4.53;1.40;;;;;;;;;;5008922;28;20175;-75
2023/08/08 10:55:27;;;;;;;3.30;1.80;;;;;;;;;;5011585;28;20335;-73
2023/08/08 10:57:55;;;;;;;2.40;1.80;;;;;;;;;;5000376;28;20238;-75
2023/08/08 11:00:23;;;;;;;2.97;1.60;;;;;;;;;;5016411;28;20179;-73
2023/08/08 11:02:51;;;;;;;2.97;1.80;;;;;;;;;;5015796;28;20498;-76
2023/08/08 11:05:17;;;;;;;3.13;1.70;;;;;;;;;;5012128;28;20212;-73
2023/08/08 11:07:43;;;;;;;2.73;1.53;;;;;;;;;;5022144;28;20285;-73
2023/08/08 11:10:10;;;;;;;4.27;1.73;;;;;;;;;;5018917;28;20867;-73
2023/08/08 11:12:36;;;;;;;1.80;1.60;;;;;;;;;;5017081;28;20707;-73
2023/08/08 11:15:02;;;;;;;2.33;1.60;;;;;;;;;;4993173;28;20204;-74
2023/08/08 11:17:30;;;;;;;3.43;1.70;;;;;;;;;;4983960;28;20631;-73
2023/08/08 11:19:56;;;;;;;2.80;1.50;;;;;;;;;;5016485;28;20231;-73
2023/08/08 11:22:23;;;;;;;1.70;1.50;;;;;;;;;;5014897;28;20205;-73
2023/08/08 11:24:52;;;;;;;3.37;1.60;;;;;;;;;;5020137;28;20542;-74
2023/08/08 11:27:18;;;;;;;3.10;1.60;;;;;;;;;;5016065;28;20595;-76
2023/08/08 11:29:53;;;;;;;2.20;1.60;;;;;;;;;;5002882;28;20202;-73
2023/08/08 11:32:20;;;;;;;2.10;1.37;;;;;;;;;;5015113;28;20192;-73
2023/08/08 11:34:46;;;;;;;2.20;1.50;;;;;;;;;;4983200;28;20204;-73
2023/08/08 11:37:15;;;;;;;3.00;1.70;;;;;;;;;;5018130;28;20227;-73
2023/08/08 11:39:41;;;;;;;1.40;1.30;;;;;;;;;;5016975;28;20188;-77
2023/08/08 11:42:07;;;;;;;2.77;1.60;;;;;;;;;;5011155;28;20197;-78
2023/08/08 11:44:33;;;;;;;2.37;1.60;;;;;;;;;;5001089;28;20201;-78
2023/08/08 11:47:00;;;;;;;1.87;1.43;;;;;;;;;;5001774;28;20188;-77
2023/08/08 11:49:27;;;;;;;2.73;1.57;;;;;;;;;;5002441;28;20243;-77
2023/08/08 11:51:59;;;;;;;3.33;1.70;;;;;;;;;;4992134;28;20218;-78
2023/08/08 11:54:28;;;;;;;2.77;1.50;;;;;;;;;;4995082;28;20217;-77
2023/08/08 11:56:55;;;;;;;4.20;1.73;;;;;;;;;;5015812;28;20238;-78
2023/08/08 11:59:21;;;;;;;2.30;1.63;;;;;;;;;;5001553;28;20195;-77
2023/08/08 12:01:50;;;;;;;1.93;1.60;;;;;;;;;;5019848;28;20201;-77
2023/08/08 12:04:16;;;;;;;2.37;1.57;;;;;;;;;;5012989;28;20618;-77
2023/08/08 12:06:43;;;;;;;4.90;1.77;;;;;;;;;;5017744;28;20182;-77
2023/08/08 12:09:13;;;;;;;2.13;1.60;;;;;;;;;;4986364;28;20187;-77
2023/08/08 12:11:39;;;;;;;2.53;1.80;;;;;;;;;;4997415;28;20190;-78
2023/08/08 12:14:07;;;;;;;2.10;1.70;;;;;;;;;;5018259;28;20238;-77
2023/08/08 12:16:34;;;;;;;2.60;1.43;;;;;;;;;;5020309;28;20186;-77
2023/08/08 12:19:03;;;;;;;3.37;1.50;;;;;;;;;;5014056;28;20215;-77
2023/08/08 12:21:29;;;;;;;2.47;1.40;;;;;;;;;;5018018;28;20673;-78
2023/08/08 12:23:55;;;;;;;1.70;1.60;;;;;;;;;;4977984;28;20233;-77
2023/08/08 12:26:21;;;;;;;2.07;1.43;;;;;;;;;;5027511;22;20225;-84
2023/08/08 12:28:50;;;;;;;2.47;1.40;;;;;;;;;;5011723;28;20215;-84
2023/08/08 12:31:16;;;;;;;3.47;1.50;;;;;;;;;;5012496;28;20194;-83
2023/08/08 12:33:42;;;;;;;3.13;1.50;;;;;;;;;;5006692;28;20308;-84
2023/08/08 12:36:08;;;;;;;4.70;1.53;;;;;;;;;;4999569;28;20191;-84
2023/08/08 12:38:35;;;;;;;2.57;1.50;;;;;;;;;;5022463;28;20197;-84
2023/08/08 12:41:02;;;;;;;3.43;1.53;;;;;;;;;;5028642;28;20183;-84
2023/08/08 12:43:29;;;;;;;3.00;1.40;;;;;;;;;;5028328;28;20203;-84
2023/08/08 12:45:55;;;;;;;2.10;1.60;;;;;;;;;;5033643;28;20543;-84
2023/08/08 12:48:21;;;;;;;2.10;1.43;;;;;;;;;;5028057;28;20189;-84
2023/08/08 12:50:48;;;;;;;2.97;1.50;;;;;;;;;;5011902;28;20239;-85
2023/08/08 12:53:14;;;;;;;3.10;1.60;;;;;;;;;;5027256;28;20565;-84
2023/08/08 12:55:40;;;;;;;2.10;1.40;;;;;;;;;;4994953;28;20190;-84
2023/08/08 12:58:06;;;;;;;4.07;1.40;;;;;;;;;;5001922;28;20611;-84
2023/08/08 13:00:32;;;;;;;1.50;1.40;;;;;;;;;;5027270;28;20178;-84
2023/08/08 13:02:59;;;;;;;3.23;1.60;;;;;;;;;;5030472;28;20229;-84
2023/08/08 13:05:26;;;;;;;2.13;1.60;;;;;;;;;;5025207;28;20315;-84
2023/08/08 13:07:53;;;;;;;1.83;1.43;;;;;;;;;;5006540;28;20189;-84
2023/08/08 13:10:20;;;;;;;3.00;1.40;;;;;;;;;;5029609;28;20179;-84
2023/08/08 13:12:47;;;;;;;2.50;1.40;;;;;;;;;;4999531;28;20730;-84
2023/08/08 13:15:13;;;;;;;3.20;1.30;;;;;;;;;;5027477;28;20205;-84
2023/08/08 13:17:39;;;;;;;2.80;1.57;;;;;;;;;;5027422;28;20182;-85
2023/08/08 13:20:07;;;;;;;2.77;1.60;;;;;;;;;;5006841;28;20281;-84
2023/08/08 13:22:33;;;;;;;2.50;1.37;;;;;;;;;;5032665;28;20242;-84
2023/08/08 13:24:59;;;;;;;2.13;1.47;;;;;;;;;;4999685;28;20185;-84
2023/08/08 13:27:26;;;;;;;2.73;1.30;;;;;;;;;;5018831;28;20241;-84
2023/08/08 13:29:52;;;;;;;2.60;1.30;;;;;;;;;;4988655;28;20182;-85
2023/08/08 13:32:18;;;;;;;1.90;1.60;;;;;;;;;;5032160;28;20203;-84
2023/08/08 13:34:44;;;;;;;2.60;1.60;;;;;;;;;;5028453;28;20198;-84
2023/08/08 13:37:10;;;;;;;6.53;1.60;;;;;;;;;;4991229;28;20186;-84
2023/08/08 13:39:37;;;;;;;2.53;1.50;;;;;;;;;;5031159;28;20462;-83
2023/08/08 13:42:03;;;;;;;2.63;1.30;;;;;;;;;;5016219;28;20309;-83
2023/08/08 13:44:31;;;;;;;2.77;1.40;;;;;;;;;;5023027;28;20620;-83
2023/08/08 13:46:57;;;;;;;2.27;1.50;;;;;;;;;;5030534;28;20552;-83
2023/08/08 13:49:26;;;;;;;2.07;1.27;;;;;;;;;;5025391;28;20674;-84
2023/08/08 13:51:53;;;;;;;2.40;1.57;;;;;;;;;;5001043;28;20206;-84
2023/08/08 13:54:20;;;;;;;2.27;1.50;;;;;;;;;;5000444;28;20889;-83
2023/08/08 13:56:46;;;;;;;2.10;1.30;;;;;;;;;;5007907;28;20703;-83
2023/08/08 13:59:12;;;;;;;1.87;1.30;;;;;;;;;;5023018;28;20197;-84
2023/08/08 14:01:38;;;;;;;1.93;1.20;;;;;;;;;;5010780;28;20217;-83
2023/08/08 14:04:04;;;;;;;2.03;1.20;;;;;;;;;;5006687;28;20184;-83
2023/08/08 14:06:31;;;;;;;2.67;1.40;;;;;;;;;;5026424;28;20671;-82
2023/08/08 14:08:57;;;;;;;3.17;1.30;;;;;;;;;;5023389;28;20183;-82
2023/08/08 14:11:23;;;;;;;3.37;1.57;;;;;;;;;;5002431;28;20189;-83
2023/08/08 14:13:49;;;;;;;1.87;1.30;;;;;;;;;;4994880;28;20186;-83
2023/08/08 14:16:16;;;;;;;2.10;1.40;;;;;;;;;;5028332;28;20182;-83
2023/08/08 14:18:43;;;;;;;1.80;1.20;;;;;;;;;;5014727;28;20674;-84
2023/08/08 14:21:09;;;;;;;2.47;1.30;;;;;;;;;;5032812;28;20609;-84
2023/08/08 14:23:35;;;;;;;2.17;1.30;;;;;;;;;;4997684;28;20278;-84
2023/08/08 14:26:01;;;;;;;2.10;1.30;;;;;;;;;;5033760;28;20563;-83
2023/08/08 14:28:27;;;;;;;1.93;1.30;;;;;;;;;;5027751;28;21331;-83
2023/08/08 14:30:53;;;;;;;4.73;1.50;;;;;;;;;;4991108;28;20213;-83
2023/08/08 14:33:20;;;;;;;2.73;1.30;;;;;;;;;;5030556;28;20229;-83
2023/08/08 14:35:46;;;;;;;4.90;1.50;;;;;;;;;;5026515;28;20235;-83
2023/08/08 14:38:12;;;;;;;2.80;1.30;;;;;;;;;;5007570;28;20693;-83
2023/08/08 14:40:38;;;;;;;1.87;1.43;;;;;;;;;;5007326;28;20175;-82